Time;durP1;ratioP1;P1;durP2;ratioP2;P2;SDS_P1;SDS_P2;PMS_P1;PMS_P2;Temp;Humidity;BMP_temperature;BMP_pressure;BME280_temperature;BME280_humidity;BME280_pressure;Samples;Min_cycle;Max_cycle;Signal;HPM_P1;HPM_P2
2023/01/09 00:00:42;;;;;;;2.10;2.00;;;;;;;9.95;59.46;97887.59;10527450;28;20233;-36
2023/01/09 00:05:44;;;;;;;2.40;2.30;;;;;;;8.72;60.84;97948.00;10563917;28;20688;-36
2023/01/09 00:10:48;;;;;;;1.80;1.70;;;;;;;9.51;60.57;97904.78;10556921;28;20254;-36
2023/01/09 00:15:50;;;;;;;2.00;1.90;;;;;;;8.87;60.83;97947.69;10558613;27;20245;-36
2023/01/09 00:20:52;;;;;;;2.07;1.97;;;;;;;8.96;60.80;97945.56;10556293;27;20238;-37
2023/01/09 00:26:07;;;;;;;2.80;2.47;;;;;;;9.40;58.28;97911.69;10562218;27;20233;-36
2023/01/09 00:31:10;;;;;;;2.30;2.20;;;;;;;9.03;60.65;97957.03;10554346;27;20225;-36
2023/01/09 00:36:11;;;;;;;1.80;1.70;;;;;;;9.39;60.33;97956.25;10556394;27;20317;-36
2023/01/09 00:41:18;;;;;;;1.97;1.87;;;;;;;10.03;58.30;97923.88;10554636;28;20515;-37
2023/01/09 00:46:29;;;;;;;2.23;2.10;;;;;;;9.81;57.85;97918.19;10563965;27;20594;-37
2023/01/09 00:51:30;;;;;;;2.70;2.50;;;;;;;10.81;56.55;97871.28;10558503;27;20222;-36
2023/01/09 00:56:34;;;;;;;2.00;1.90;;;;;;;8.65;60.38;97965.88;10565879;27;20236;-36
2023/01/09 01:01:36;;;;;;;1.80;1.70;;;;;;;8.70;59.82;97958.06;10557401;27;20318;-36
2023/01/09 01:11:59;;;;;;;1.50;1.50;;;;;;;9.84;57.29;98000.59;10559281;27;20237;-35
2023/01/09 01:17:01;;;;;;;2.00;1.80;;;;;;;10.07;55.55;97929.59;10565919;27;20229;-37
2023/01/09 01:22:03;;;;;;;2.03;1.80;;;;;;;10.39;55.76;97897.28;10561189;27;20319;-36
2023/01/09 01:27:05;;;;;;;2.20;2.10;;;;;;;11.20;53.03;97902.94;10564580;27;20236;-37
2023/01/09 01:32:07;;;;;;;2.10;2.00;;;;;;;11.27;53.51;97925.03;10556784;27;20230;-36
2023/01/09 01:37:09;;;;;;;1.90;1.77;;;;;;;11.02;52.97;97958.22;10563211;27;20257;-37
2023/01/09 01:42:12;;;;;;;1.90;1.80;;;;;;;9.77;55.83;98018.53;10560778;27;20230;-36
2023/01/09 01:47:16;;;;;;;4.07;2.20;;;;;;;11.04;53.68;97926.69;10554367;27;20252;-37
2023/01/09 01:52:19;;;;;;;2.03;1.93;;;;;;;10.80;54.14;98021.34;10559840;27;20805;-42
2023/01/09 01:57:20;;;;;;;1.73;1.63;;;;;;;10.51;53.62;97962.28;10561529;27;20233;-36
2023/01/09 02:02:26;;;;;;;2.73;1.67;;;;;;;12.11;52.08;97940.72;10559787;27;20239;-35
2023/01/09 02:07:29;;;;;;;1.80;1.70;;;;;;;9.50;54.26;97935.19;10566396;27;20320;-35
2023/01/09 02:12:30;;;;;;;3.50;1.60;;;;;;;11.49;53.29;97988.72;10567837;27;20602;-36
2023/01/09 02:17:45;;;;;;;1.80;1.70;;;;;;;11.34;52.00;97971.28;10564044;27;20234;-36
2023/01/09 02:23:05;;;;;;;2.03;1.90;;;;;;;12.06;51.29;97986.19;10549226;28;20237;-36
2023/01/09 02:28:18;;;;;;;2.53;2.33;;;;;;;11.59;52.26;98005.84;10557282;28;20225;-37
2023/01/09 02:33:29;;;;;;;2.53;2.00;;;;;;;11.11;52.64;98022.13;10554414;28;20230;-37
2023/01/09 02:38:39;;;;;;;2.07;1.93;;;;;;;11.62;52.38;98047.41;10551833;27;20237;-37
2023/01/09 02:43:41;;;;;;;2.30;2.20;;;;;;;9.45;55.68;98100.56;10536807;28;20240;-37
2023/01/09 02:48:44;;;;;;;1.80;1.70;;;;;;;11.60;52.35;98015.50;10555075;28;20232;-37
2023/01/09 02:54:09;;;;;;;1.80;1.70;;;;;;;9.94;53.60;98133.66;10548699;28;20252;-37
2023/01/09 02:59:11;;;;;;;2.10;2.00;;;;;;;9.33;53.54;98156.50;10555407;28;20238;-36
2023/01/09 03:04:37;;;;;;;2.03;1.70;;;;;;;9.55;53.33;98159.63;10559867;27;20238;-36
2023/01/09 03:09:41;;;;;;;1.50;1.50;;;;;;;8.93;53.49;98157.59;10548835;28;20414;-36
2023/01/09 03:14:47;;;;;;;2.50;2.30;;;;;;;9.71;52.66;98158.28;10549419;28;20236;-36
2023/01/09 03:19:52;;;;;;;2.10;2.00;;;;;;;10.40;52.03;98144.91;10550003;28;20762;-36
2023/01/09 03:24:54;;;;;;;1.50;1.50;;;;;;;9.44;53.28;98237.78;10545710;28;20608;-36
2023/01/09 03:29:56;;;;;;;2.10;2.00;;;;;;;8.53;54.08;98164.91;10552337;28;20699;-36
2023/01/09 03:35:00;;;;;;;1.60;1.57;;;;;;;9.54;51.23;98222.91;10539029;28;20590;-37
2023/01/09 03:40:02;;;;;;;2.90;2.00;;;;;;;10.20;49.45;98193.25;10547041;28;20234;-37
2023/01/09 03:45:04;;;;;;;2.00;1.70;;;;;;;10.97;48.78;98187.47;10558600;27;20706;-36
2023/01/09 03:50:07;;;;;;;1.57;1.50;;;;;;;10.48;48.87;98249.72;10560138;28;20238;-37
2023/01/09 03:55:09;;;;;;;2.37;2.27;;;;;;;10.54;49.18;98298.81;10564656;27;20232;-36
2023/01/09 04:00:12;;;;;;;1.60;1.50;;;;;;;11.29;48.71;98251.47;10564945;27;20226;-37
2023/01/09 04:05:13;;;;;;;1.60;1.50;;;;;;;9.74;51.02;98361.69;10557991;27;20234;-37
2023/01/09 04:10:15;;;;;;;1.70;1.60;;;;;;;10.47;49.83;98308.78;10565667;27;20237;-37
2023/01/09 04:15:18;;;;;;;1.40;1.40;;;;;;;10.50;49.44;98311.00;10559084;27;20245;-37
2023/01/09 04:20:19;;;;;;;2.23;1.60;;;;;;;9.77;50.93;98381.81;10568891;27;20252;-37
2023/01/09 04:25:24;;;;;;;2.23;2.03;;;;;;;10.65;49.58;98287.41;10556053;27;20226;-37
2023/01/09 04:30:25;;;;;;;2.60;1.70;;;;;;;10.02;50.36;98327.63;10550856;28;20976;-36
2023/01/09 04:35:27;;;;;;;2.20;1.90;;;;;;;9.01;51.76;98376.13;10563918;27;20242;-36
2023/01/09 04:40:29;;;;;;;2.00;1.70;;;;;;;9.53;51.35;98412.72;10555641;27;20226;-36
2023/01/09 04:45:31;;;;;;;1.70;1.60;;;;;;;8.91;51.51;98372.22;10556809;27;20230;-36
2023/01/09 04:50:33;;;;;;;2.50;2.17;;;;;;;9.28;50.26;98400.09;10551434;28;20249;-36
2023/01/09 04:55:58;;;;;;;2.30;2.20;;;;;;;9.34;50.29;98403.75;10548123;28;20222;-36
2023/01/09 05:01:23;;;;;;;2.03;1.90;;;;;;;8.85;50.41;98389.88;10558708;27;20696;-36
2023/01/09 05:06:50;;;;;;;2.00;1.90;;;;;;;10.24;49.94;98384.22;10556950;27;20238;-36
2023/01/09 05:12:15;;;;;;;2.00;1.90;;;;;;;9.08;50.09;98434.81;10562726;27;20225;-36
2023/01/09 05:17:41;;;;;;;3.67;1.90;;;;;;;9.60;49.84;98416.19;10547329;27;20259;-36
2023/01/09 05:23:07;;;;;;;1.93;1.83;;;;;;;8.74;51.15;98422.47;10558195;27;20417;-36
2023/01/09 05:28:33;;;;;;;1.90;1.80;;;;;;;8.84;50.67;98450.41;10558056;27;20250;-36
2023/01/09 05:33:59;;;;;;;3.20;1.87;;;;;;;7.47;51.39;98271.25;10553640;27;20251;-36
2023/01/09 19:07:02;;;;;;;5.23;3.40;;;;;;;7.59;53.98;99147.44;10483092;28;20226;-66
2023/01/09 19:12:04;;;;;;;4.90;3.80;;;;;;;8.11;53.90;99153.78;10464621;28;20226;-66
2023/01/09 19:17:06;;;;;;;4.20;3.77;;;;;;;8.38;52.94;99165.63;10464075;28;20414;-63
2023/01/09 19:22:07;;;;;;;3.83;3.20;;;;;;;8.28;53.61;99167.75;10486971;28;20234;-64
2023/01/09 19:27:09;;;;;;;8.23;4.90;;;;;;;8.23;53.43;99165.63;10475697;28;20230;-64
2023/01/09 19:32:12;;;;;;;7.23;3.87;;;;;;;8.30;53.11;99173.72;10475368;28;20237;-63
2023/01/09 19:37:14;;;;;;;4.17;2.83;;;;;;;8.11;53.56;99199.06;10477580;28;20251;-66
2023/01/09 19:42:16;;;;;;;6.20;3.40;;;;;;;6.91;54.87;99187.19;10469226;28;20584;-63
2023/01/09 19:47:18;;;;;;;8.03;3.10;;;;;;;7.96;54.67;99200.91;10480600;28;20234;-63
2023/01/09 19:52:20;;;;;;;6.83;3.23;;;;;;;8.30;53.52;99205.69;10497451;28;20226;-65
2023/01/09 19:57:21;;;;;;;5.07;2.93;;;;;;;6.11;57.91;99235.13;10497714;28;20238;-64
2023/01/09 20:02:23;;;;;;;6.53;3.00;;;;;;;6.03;58.04;99233.31;10482728;28;20228;-64
2023/01/09 20:07:25;;;;;;;3.63;3.03;;;;;;;7.06;57.16;99221.03;10483779;28;20610;-66
2023/01/09 20:12:26;;;;;;;4.27;3.33;;;;;;;6.61;58.24;99249.94;10482572;28;21115;-64
2023/01/09 20:17:28;;;;;;;5.00;4.00;;;;;;;6.80;56.71;99195.53;10482119;28;20785;-64
2023/01/09 20:22:30;;;;;;;6.10;3.97;;;;;;;8.36;55.17;99194.31;10472074;28;20754;-63
2023/01/09 20:27:32;;;;;;;4.13;3.57;;;;;;;6.28;59.08;99249.19;10477745;28;20755;-65
2023/01/09 20:32:34;;;;;;;6.83;3.70;;;;;;;7.82;54.46;99200.66;10476803;28;20672;-65
2023/01/09 20:37:37;;;;;;;7.40;3.00;;;;;;;5.40;58.17;99197.63;10489428;28;20235;-65
2023/01/09 20:42:38;;;;;;;5.57;3.80;;;;;;;7.78;55.04;99225.16;10484157;28;20678;-65
2023/01/09 20:47:40;;;;;;;4.67;3.90;;;;;;;9.15;52.36;99260.38;10464623;28;20676;-66
2023/01/09 20:52:41;;;;;;;7.30;3.60;;;;;;;8.55;52.84;99259.56;10489715;28;20231;-66
2023/01/09 20:57:43;;;;;;;10.60;4.03;;;;;;;8.24;53.51;99279.25;10474687;28;20224;-65
2023/01/09 21:02:45;;;;;;;4.80;3.00;;;;;;;7.07;55.37;99347.72;10477781;28;20708;-65
2023/01/09 21:07:47;;;;;;;3.67;2.50;;;;;;;6.08;56.29;99334.59;10456481;28;20231;-64
2023/01/09 21:12:48;;;;;;;2.37;2.17;;;;;;;6.61;55.18;99322.53;10482835;28;20235;-63
2023/01/09 21:17:50;;;;;;;3.17;2.73;;;;;;;6.61;54.58;99316.41;10471422;28;20732;-63
2023/01/09 21:22:52;;;;;;;2.73;2.40;;;;;;;6.35;55.29;99341.38;10491751;28;20242;-65
2023/01/09 21:27:54;;;;;;;2.50;2.30;;;;;;;7.76;53.06;99339.88;10494848;28;20711;-64
2023/01/09 21:32:55;;;;;;;3.73;2.80;;;;;;;7.06;54.36;99373.50;10500780;28;20239;-65
2023/01/09 21:37:57;;;;;;;3.40;3.03;;;;;;;6.49;54.91;99357.66;10492210;28;20238;-64
2023/01/09 21:48:19;;;;;;;2.47;2.27;;;;;;;6.38;54.31;99356.16;10488741;28;20273;-68
2023/01/09 21:53:21;;;;;;;2.93;2.63;;;;;;;6.08;54.54;99377.09;10476964;28;20231;-67
2023/01/09 21:58:23;;;;;;;6.50;3.50;;;;;;;7.03;53.74;99403.09;10472996;28;20783;-64
2023/01/09 22:03:25;;;;;;;2.53;2.33;;;;;;;6.96;52.73;99379.00;10469673;28;20707;-64
2023/01/09 22:08:27;;;;;;;3.93;2.43;;;;;;;7.68;52.50;99396.69;10474586;28;20305;-64
2023/01/09 22:13:29;;;;;;;3.70;2.80;;;;;;;7.68;51.96;99403.88;10476901;28;20242;-65
2023/01/09 22:18:33;;;;;;;3.50;2.40;;;;;;;7.06;54.00;99461.31;10481845;28;20265;-64
2023/01/09 22:23:35;;;;;;;2.60;2.13;;;;;;;7.71;52.29;99451.44;10472017;28;20231;-64
2023/01/09 22:28:36;;;;;;;2.50;2.30;;;;;;;7.71;52.03;99468.28;10473040;28;20239;-64
2023/01/09 22:33:38;;;;;;;2.40;2.20;;;;;;;7.61;51.72;99457.00;10475951;28;20606;-64
2023/01/09 22:38:40;;;;;;;2.60;2.40;;;;;;;8.48;51.43;99478.16;10462384;28;20234;-64
2023/01/09 22:43:41;;;;;;;3.73;2.40;;;;;;;7.41;54.39;99519.59;10475056;28;20234;-64
2023/01/09 22:48:43;;;;;;;3.00;2.37;;;;;;;8.07;51.91;99489.09;10467995;28;20602;-64
2023/01/09 22:53:46;;;;;;;2.80;2.60;;;;;;;8.22;51.56;99513.16;10475273;28;20247;-63
2023/01/09 22:58:52;;;;;;;3.33;3.03;;;;;;;8.47;51.39;99507.66;10471450;28;20227;-65
2023/01/09 23:03:54;;;;;;;4.50;3.10;;;;;;;8.59;51.21;99524.94;10467875;28;20251;-65
2023/01/09 23:08:56;;;;;;;4.73;2.60;;;;;;;8.12;52.07;99541.88;10470700;28;20223;-64
2023/01/09 23:13:57;;;;;;;3.63;3.00;;;;;;;7.33;53.13;99544.44;10469319;28;20238;-64
2023/01/09 23:18:59;;;;;;;3.60;2.90;;;;;;;8.21;52.32;99540.81;10483503;28;20625;-64
2023/01/09 23:24:01;;;;;;;3.73;2.67;;;;;;;7.22;53.25;99547.44;10472406;28;20226;-64
2023/01/09 23:29:04;;;;;;;5.17;3.17;;;;;;;8.93;51.19;99546.88;10470096;28;20236;-65
2023/01/09 23:34:11;;;;;;;3.07;2.70;;;;;;;7.68;52.94;99588.47;10490865;28;20234;-64
2023/01/09 23:39:13;;;;;;;4.33;3.47;;;;;;;8.46;51.39;99567.34;10492291;28;20240;-64
2023/01/09 23:44:15;;;;;;;3.23;2.93;;;;;;;8.40;52.23;99590.19;10484613;28;20230;-64
2023/01/09 23:49:16;;;;;;;5.90;3.77;;;;;;;8.61;52.41;99607.44;10486949;28;20310;-63
2023/01/09 23:54:18;;;;;;;4.80;4.10;;;;;;;7.96;53.27;99613.88;10477499;28;20238;-64
2023/01/09 23:59:20;;;;;;;3.10;2.80;;;;;;;8.08;53.17;99624.00;10471112;28;20242;-62
